sensor_id;sensor_type;location;lat;lon;timestamp;temperature;humidity
40538;DHT22;27925;41.874;12.526;2024-02-23T00:01:16;14.30;81.50
40538;DHT22;27925;41.874;12.526;2024-02-23T00:03:42;14.30;81.60
40538;DHT22;27925;41.874;12.526;2024-02-23T00:06:08;14.30;81.70
40538;DHT22;27925;41.874;12.526;2024-02-23T00:08:34;14.30;81.40
40538;DHT22;27925;41.874;12.526;2024-02-23T00:11:00;14.30;81.60
40538;DHT22;27925;41.874;12.526;2024-02-23T00:13:25;14.30;81.50
40538;DHT22;27925;41.874;12.526;2024-02-23T00:15:51;14.30;81.50
40538;DHT22;27925;41.874;12.526;2024-02-23T00:18:17;14.30;81.50
40538;DHT22;27925;41.874;12.526;2024-02-23T00:20:43;14.30;81.60
40538;DHT22;27925;41.874;12.526;2024-02-23T00:23:09;14.30;81.40
40538;DHT22;27925;41.874;12.526;2024-02-23T00:25:34;14.30;81.70
40538;DHT22;27925;41.874;12.526;2024-02-23T00:28:00;14.30;81.70
40538;DHT22;27925;41.874;12.526;2024-02-23T00:30:26;14.30;81.70
40538;DHT22;27925;41.874;12.526;2024-02-23T00:32:52;14.20;81.80
40538;DHT22;27925;41.874;12.526;2024-02-23T00:35:18;14.20;81.70
40538;DHT22;27925;41.874;12.526;2024-02-23T00:37:44;14.20;81.90
40538;DHT22;27925;41.874;12.526;2024-02-23T00:40:10;14.20;81.90
40538;DHT22;27925;41.874;12.526;2024-02-23T00:42:36;14.20;82.20
40538;DHT22;27925;41.874;12.526;2024-02-23T00:45:03;14.20;82.30
40538;DHT22;27925;41.874;12.526;2024-02-23T00:47:29;14.20;82.30
40538;DHT22;27925;41.874;12.526;2024-02-23T00:49:54;14.20;82.00
40538;DHT22;27925;41.874;12.526;2024-02-23T00:52:20;14.20;82.10
40538;DHT22;27925;41.874;12.526;2024-02-23T00:54:46;14.10;82.10
40538;DHT22;27925;41.874;12.526;2024-02-23T00:57:11;14.10;82.10
40538;DHT22;27925;41.874;12.526;2024-02-23T00:59:37;14.10;82.30
40538;DHT22;27925;41.874;12.526;2024-02-23T01:02:02;14.10;82.50
40538;DHT22;27925;41.874;12.526;2024-02-23T01:04:28;14.10;82.50
40538;DHT22;27925;41.874;12.526;2024-02-23T01:06:54;14.10;82.60
40538;DHT22;27925;41.874;12.526;2024-02-23T01:09:19;14.10;82.50
40538;DHT22;27925;41.874;12.526;2024-02-23T01:11:49;14.00;82.70
40538;DHT22;27925;41.874;12.526;2024-02-23T01:14:15;14.00;82.80
40538;DHT22;27925;41.874;12.526;2024-02-23T01:16:41;14.00;83.00
40538;DHT22;27925;41.874;12.526;2024-02-23T01:19:06;14.00;83.00
40538;DHT22;27925;41.874;12.526;2024-02-23T01:21:32;13.90;83.00
40538;DHT22;27925;41.874;12.526;2024-02-23T01:23:58;13.90;83.10
40538;DHT22;27925;41.874;12.526;2024-02-23T01:26:26;13.90;83.40
40538;DHT22;27925;41.874;12.526;2024-02-23T01:28:53;13.90;83.30
40538;DHT22;27925;41.874;12.526;2024-02-23T01:31:19;13.90;83.50
40538;DHT22;27925;41.874;12.526;2024-02-23T01:33:44;13.90;83.60
40538;DHT22;27925;41.874;12.526;2024-02-23T01:36:10;13.90;83.60
40538;DHT22;27925;41.874;12.526;2024-02-23T01:38:36;13.90;83.60
40538;DHT22;27925;41.874;12.526;2024-02-23T01:41:01;13.90;83.70
40538;DHT22;27925;41.874;12.526;2024-02-23T01:43:27;13.80;83.80
40538;DHT22;27925;41.874;12.526;2024-02-23T01:45:54;13.80;83.80
40538;DHT22;27925;41.874;12.526;2024-02-23T01:48:20;13.80;84.10
40538;DHT22;27925;41.874;12.526;2024-02-23T01:50:47;13.80;84.30
40538;DHT22;27925;41.874;12.526;2024-02-23T01:53:13;13.80;84.40
40538;DHT22;27925;41.874;12.526;2024-02-23T01:55:42;13.80;84.20
40538;DHT22;27925;41.874;12.526;2024-02-23T01:58:08;13.80;84.20
40538;DHT22;27925;41.874;12.526;2024-02-23T02:00:35;13.80;84.30
40538;DHT22;27925;41.874;12.526;2024-02-23T02:03:01;13.80;84.50
40538;DHT22;27925;41.874;12.526;2024-02-23T02:05:27;13.80;84.40
40538;DHT22;27925;41.874;12.526;2024-02-23T02:07:55;13.80;84.50
40538;DHT22;27925;41.874;12.526;2024-02-23T02:10:25;13.70;84.80
40538;DHT22;27925;41.874;12.526;2024-02-23T02:12:51;13.70;84.90
40538;DHT22;27925;41.874;12.526;2024-02-23T02:15:17;13.70;84.90
40538;DHT22;27925;41.874;12.526;2024-02-23T02:17:43;13.80;85.20
40538;DHT22;27925;41.874;12.526;2024-02-23T02:20:12;13.80;85.10
40538;DHT22;27925;41.874;12.526;2024-02-23T02:22:38;13.80;85.80
40538;DHT22;27925;41.874;12.526;2024-02-23T02:25:05;13.80;85.20
40538;DHT22;27925;41.874;12.526;2024-02-23T02:27:32;13.80;85.20
40538;DHT22;27925;41.874;12.526;2024-02-23T02:29:58;13.80;85.20
40538;DHT22;27925;41.874;12.526;2024-02-23T02:32:23;13.80;85.10
40538;DHT22;27925;41.874;12.526;2024-02-23T02:34:49;13.90;85.40
40538;DHT22;27925;41.874;12.526;2024-02-23T02:37:15;13.90;85.40
40538;DHT22;27925;41.874;12.526;2024-02-23T02:39:41;13.90;85.30
40538;DHT22;27925;41.874;12.526;2024-02-23T02:42:07;13.90;85.30
40538;DHT22;27925;41.874;12.526;2024-02-23T02:44:32;13.90;85.40
40538;DHT22;27925;41.874;12.526;2024-02-23T02:46:58;13.90;85.30
40538;DHT22;27925;41.874;12.526;2024-02-23T02:49:24;13.90;85.30
40538;DHT22;27925;41.874;12.526;2024-02-23T02:51:50;13.90;85.10
40538;DHT22;27925;41.874;12.526;2024-02-23T02:54:16;13.90;85.10
40538;DHT22;27925;41.874;12.526;2024-02-23T02:56:43;13.90;85.00
40538;DHT22;27925;41.874;12.526;2024-02-23T02:59:09;13.90;85.10
40538;DHT22;27925;41.874;12.526;2024-02-23T03:01:35;13.90;85.20
40538;DHT22;27925;41.874;12.526;2024-02-23T03:04:01;13.90;85.20
40538;DHT22;27925;41.874;12.526;2024-02-23T03:06:27;13.90;85.20
40538;DHT22;27925;41.874;12.526;2024-02-23T03:08:53;13.90;85.10
40538;DHT22;27925;41.874;12.526;2024-02-23T03:11:18;14.00;85.20
40538;DHT22;27925;41.874;12.526;2024-02-23T03:13:44;14.00;85.20
40538;DHT22;27925;41.874;12.526;2024-02-23T03:16:20;14.00;85.40
40538;DHT22;27925;41.874;12.526;2024-02-23T03:18:48;14.00;85.20
40538;DHT22;27925;41.874;12.526;2024-02-23T03:21:14;14.00;85.20
40538;DHT22;27925;41.874;12.526;2024-02-23T03:23:41;14.00;85.30
40538;DHT22;27925;41.874;12.526;2024-02-23T03:26:07;14.00;85.40
40538;DHT22;27925;41.874;12.526;2024-02-23T03:28:33;14.00;85.40
40538;DHT22;27925;41.874;12.526;2024-02-23T03:31:00;14.00;86.10
40538;DHT22;27925;41.874;12.526;2024-02-23T03:33:26;14.00;85.50
40538;DHT22;27925;41.874;12.526;2024-02-23T03:35:52;14.00;85.50
40538;DHT22;27925;41.874;12.526;2024-02-23T03:38:18;14.00;85.60
40538;DHT22;27925;41.874;12.526;2024-02-23T03:40:43;14.10;85.70
40538;DHT22;27925;41.874;12.526;2024-02-23T03:43:09;14.10;85.70
40538;DHT22;27925;41.874;12.526;2024-02-23T03:45:35;14.10;86.10
40538;DHT22;27925;41.874;12.526;2024-02-23T03:48:03;14.10;85.70
40538;DHT22;27925;41.874;12.526;2024-02-23T03:50:29;14.10;86.00
40538;DHT22;27925;41.874;12.526;2024-02-23T03:52:55;14.10;86.10
40538;DHT22;27925;41.874;12.526;2024-02-23T03:55:21;14.10;86.10
40538;DHT22;27925;41.874;12.526;2024-02-23T03:57:47;14.10;86.30
40538;DHT22;27925;41.874;12.526;2024-02-23T04:00:13;14.10;86.20
40538;DHT22;27925;41.874;12.526;2024-02-23T04:02:39;14.10;86.20
40538;DHT22;27925;41.874;12.526;2024-02-23T04:05:06;14.10;86.40
40538;DHT22;27925;41.874;12.526;2024-02-23T04:07:31;14.10;86.40
40538;DHT22;27925;41.874;12.526;2024-02-23T04:09:57;14.10;86.40
40538;DHT22;27925;41.874;12.526;2024-02-23T04:12:24;14.10;86.60
40538;DHT22;27925;41.874;12.526;2024-02-23T04:14:50;14.10;86.90
40538;DHT22;27925;41.874;12.526;2024-02-23T04:17:16;14.10;86.70
40538;DHT22;27925;41.874;12.526;2024-02-23T04:19:42;14.10;86.80
40538;DHT22;27925;41.874;12.526;2024-02-23T04:22:09;14.10;86.70
40538;DHT22;27925;41.874;12.526;2024-02-23T04:24:39;14.10;86.80
40538;DHT22;27925;41.874;12.526;2024-02-23T04:27:05;14.10;86.90
40538;DHT22;27925;41.874;12.526;2024-02-23T04:29:31;14.10;87.30
40538;DHT22;27925;41.874;12.526;2024-02-23T04:32:01;14.10;87.10
40538;DHT22;27925;41.874;12.526;2024-02-23T04:34:27;14.10;87.30
40538;DHT22;27925;41.874;12.526;2024-02-23T04:36:53;14.10;87.40
40538;DHT22;27925;41.874;12.526;2024-02-23T04:39:19;14.10;87.70
40538;DHT22;27925;41.874;12.526;2024-02-23T04:41:45;14.10;87.40
40538;DHT22;27925;41.874;12.526;2024-02-23T04:44:11;14.10;87.70
40538;DHT22;27925;41.874;12.526;2024-02-23T04:46:36;14.10;87.50
40538;DHT22;27925;41.874;12.526;2024-02-23T04:49:02;14.10;87.40
40538;DHT22;27925;41.874;12.526;2024-02-23T04:51:28;14.10;87.40
40538;DHT22;27925;41.874;12.526;2024-02-23T04:53:54;14.10;87.60
40538;DHT22;27925;41.874;12.526;2024-02-23T04:56:20;14.10;88.00
40538;DHT22;27925;41.874;12.526;2024-02-23T04:58:46;14.00;87.60
40538;DHT22;27925;41.874;12.526;2024-02-23T05:01:12;14.00;87.60
40538;DHT22;27925;41.874;12.526;2024-02-23T05:03:38;14.00;87.80
40538;DHT22;27925;41.874;12.526;2024-02-23T05:06:04;14.00;87.80
40538;DHT22;27925;41.874;12.526;2024-02-23T05:08:30;14.00;88.00
40538;DHT22;27925;41.874;12.526;2024-02-23T05:10:56;14.10;88.10
40538;DHT22;27925;41.874;12.526;2024-02-23T05:13:23;14.00;87.80
40538;DHT22;27925;41.874;12.526;2024-02-23T05:15:48;14.00;88.10
40538;DHT22;27925;41.874;12.526;2024-02-23T05:18:14;14.00;88.20
40538;DHT22;27925;41.874;12.526;2024-02-23T05:20:40;14.00;88.30
40538;DHT22;27925;41.874;12.526;2024-02-23T05:23:05;14.00;88.50
40538;DHT22;27925;41.874;12.526;2024-02-23T05:25:31;14.00;88.50
40538;DHT22;27925;41.874;12.526;2024-02-23T05:27:57;14.10;88.70
40538;DHT22;27925;41.874;12.526;2024-02-23T05:30:23;14.00;88.60
40538;DHT22;27925;41.874;12.526;2024-02-23T05:32:48;14.10;88.90
40538;DHT22;27925;41.874;12.526;2024-02-23T05:35:14;14.10;88.80
40538;DHT22;27925;41.874;12.526;2024-02-23T05:37:41;14.10;88.80
40538;DHT22;27925;41.874;12.526;2024-02-23T05:40:07;14.10;88.90
40538;DHT22;27925;41.874;12.526;2024-02-23T05:42:38;14.10;89.00
40538;DHT22;27925;41.874;12.526;2024-02-23T05:45:05;14.10;88.90
40538;DHT22;27925;41.874;12.526;2024-02-23T05:47:40;14.20;89.10
40538;DHT22;27925;41.874;12.526;2024-02-23T05:50:08;14.20;88.80
40538;DHT22;27925;41.874;12.526;2024-02-23T05:52:35;14.20;89.20
40538;DHT22;27925;41.874;12.526;2024-02-23T05:55:02;14.20;89.10
40538;DHT22;27925;41.874;12.526;2024-02-23T05:57:29;14.30;89.40
40538;DHT22;27925;41.874;12.526;2024-02-23T05:59:55;14.30;89.40
40538;DHT22;27925;41.874;12.526;2024-02-23T06:02:21;14.30;89.30
40538;DHT22;27925;41.874;12.526;2024-02-23T06:04:47;14.30;89.60
40538;DHT22;27925;41.874;12.526;2024-02-23T06:07:13;14.30;89.50
40538;DHT22;27925;41.874;12.526;2024-02-23T06:09:43;14.40;89.10
40538;DHT22;27925;41.874;12.526;2024-02-23T06:12:09;14.40;89.70
40538;DHT22;27925;41.874;12.526;2024-02-23T06:14:35;14.40;89.60
40538;DHT22;27925;41.874;12.526;2024-02-23T06:17:02;14.40;89.50
40538;DHT22;27925;41.874;12.526;2024-02-23T06:19:28;14.50;89.70
40538;DHT22;27925;41.874;12.526;2024-02-23T06:21:54;14.50;89.50
40538;DHT22;27925;41.874;12.526;2024-02-23T06:24:19;14.50;89.80
40538;DHT22;27925;41.874;12.526;2024-02-23T06:26:45;14.60;89.70
40538;DHT22;27925;41.874;12.526;2024-02-23T06:29:12;14.60;89.50
40538;DHT22;27925;41.874;12.526;2024-02-23T06:31:39;14.60;89.70
40538;DHT22;27925;41.874;12.526;2024-02-23T06:34:05;14.70;89.50
40538;DHT22;27925;41.874;12.526;2024-02-23T06:36:31;14.70;89.80
40538;DHT22;27925;41.874;12.526;2024-02-23T06:38:57;14.70;89.60
40538;DHT22;27925;41.874;12.526;2024-02-23T06:41:22;14.80;89.70
40538;DHT22;27925;41.874;12.526;2024-02-23T06:43:48;14.80;89.90
40538;DHT22;27925;41.874;12.526;2024-02-23T06:46:14;14.90;89.70
40538;DHT22;27925;41.874;12.526;2024-02-23T06:48:39;14.90;89.60
40538;DHT22;27925;41.874;12.526;2024-02-23T06:51:06;14.90;89.70
40538;DHT22;27925;41.874;12.526;2024-02-23T06:53:35;14.90;89.90
40538;DHT22;27925;41.874;12.526;2024-02-23T06:56:01;14.90;89.80
40538;DHT22;27925;41.874;12.526;2024-02-23T06:58:27;14.90;90.00
40538;DHT22;27925;41.874;12.526;2024-02-23T07:00:53;14.90;90.00
40538;DHT22;27925;41.874;12.526;2024-02-23T07:03:19;15.00;90.10
40538;DHT22;27925;41.874;12.526;2024-02-23T07:05:44;15.00;90.00
40538;DHT22;27925;41.874;12.526;2024-02-23T07:08:11;15.00;90.00
40538;DHT22;27925;41.874;12.526;2024-02-23T07:10:37;15.10;90.10
40538;DHT22;27925;41.874;12.526;2024-02-23T07:13:03;15.10;90.10
40538;DHT22;27925;41.874;12.526;2024-02-23T07:15:29;15.10;90.20
40538;DHT22;27925;41.874;12.526;2024-02-23T07:17:55;15.00;90.10
40538;DHT22;27925;41.874;12.526;2024-02-23T07:20:22;15.00;90.20
40538;DHT22;27925;41.874;12.526;2024-02-23T07:22:47;15.10;90.20
40538;DHT22;27925;41.874;12.526;2024-02-23T07:25:19;15.10;90.30
40538;DHT22;27925;41.874;12.526;2024-02-23T07:27:46;15.10;90.10
40538;DHT22;27925;41.874;12.526;2024-02-23T07:30:12;15.10;90.30
40538;DHT22;27925;41.874;12.526;2024-02-23T07:32:38;15.20;90.40
40538;DHT22;27925;41.874;12.526;2024-02-23T07:35:04;15.20;90.30
40538;DHT22;27925;41.874;12.526;2024-02-23T07:37:30;15.20;90.30
40538;DHT22;27925;41.874;12.526;2024-02-23T07:39:56;15.30;90.30
40538;DHT22;27925;41.874;12.526;2024-02-23T07:42:21;15.30;90.30
40538;DHT22;27925;41.874;12.526;2024-02-23T07:44:47;15.50;90.30
40538;DHT22;27925;41.874;12.526;2024-02-23T07:47:13;15.50;90.50
40538;DHT22;27925;41.874;12.526;2024-02-23T07:49:39;15.60;90.20
40538;DHT22;27925;41.874;12.526;2024-02-23T07:52:06;15.60;90.30
40538;DHT22;27925;41.874;12.526;2024-02-23T07:54:32;15.70;90.20
40538;DHT22;27925;41.874;12.526;2024-02-23T07:56:58;15.70;90.20
40538;DHT22;27925;41.874;12.526;2024-02-23T07:59:24;15.70;90.20
40538;DHT22;27925;41.874;12.526;2024-02-23T08:01:50;15.80;90.10
40538;DHT22;27925;41.874;12.526;2024-02-23T08:04:16;15.90;90.20
40538;DHT22;27925;41.874;12.526;2024-02-23T08:06:42;15.90;90.00
40538;DHT22;27925;41.874;12.526;2024-02-23T08:09:08;16.00;90.00
40538;DHT22;27925;41.874;12.526;2024-02-23T08:11:34;16.00;90.00
40538;DHT22;27925;41.874;12.526;2024-02-23T08:14:01;16.10;89.80
40538;DHT22;27925;41.874;12.526;2024-02-23T08:16:28;16.20;89.50
40538;DHT22;27925;41.874;12.526;2024-02-23T08:18:54;16.30;89.40
40538;DHT22;27925;41.874;12.526;2024-02-23T08:21:20;16.30;89.10
40538;DHT22;27925;41.874;12.526;2024-02-23T08:23:45;16.40;88.90
40538;DHT22;27925;41.874;12.526;2024-02-23T08:26:11;16.50;88.80
40538;DHT22;27925;41.874;12.526;2024-02-23T08:28:37;16.60;88.40
40538;DHT22;27925;41.874;12.526;2024-02-23T08:31:03;16.80;88.10
40538;DHT22;27925;41.874;12.526;2024-02-23T08:33:28;16.90;87.40
40538;DHT22;27925;41.874;12.526;2024-02-23T08:35:54;17.10;87.00
40538;DHT22;27925;41.874;12.526;2024-02-23T08:38:20;17.20;86.50
40538;DHT22;27925;41.874;12.526;2024-02-23T08:40:46;17.20;86.20
40538;DHT22;27925;41.874;12.526;2024-02-23T08:43:13;17.30;86.00
40538;DHT22;27925;41.874;12.526;2024-02-23T08:45:39;17.30;85.80
40538;DHT22;27925;41.874;12.526;2024-02-23T08:48:05;17.30;85.50
40538;DHT22;27925;41.874;12.526;2024-02-23T08:50:31;17.40;85.50
40538;DHT22;27925;41.874;12.526;2024-02-23T08:52:56;17.50;85.10
40538;DHT22;27925;41.874;12.526;2024-02-23T08:55:22;17.60;84.90
40538;DHT22;27925;41.874;12.526;2024-02-23T08:57:48;17.70;84.80
40538;DHT22;27925;41.874;12.526;2024-02-23T09:00:14;17.70;84.50
40538;DHT22;27925;41.874;12.526;2024-02-23T09:02:40;17.80;84.40
40538;DHT22;27925;41.874;12.526;2024-02-23T09:05:08;17.80;84.00
40538;DHT22;27925;41.874;12.526;2024-02-23T09:07:34;17.80;84.00
40538;DHT22;27925;41.874;12.526;2024-02-23T09:10:00;17.80;83.80
40538;DHT22;27925;41.874;12.526;2024-02-23T09:12:26;17.90;83.80
40538;DHT22;27925;41.874;12.526;2024-02-23T09:14:51;17.90;83.60
40538;DHT22;27925;41.874;12.526;2024-02-23T09:17:17;17.90;83.60
40538;DHT22;27925;41.874;12.526;2024-02-23T09:19:45;17.90;83.50
40538;DHT22;27925;41.874;12.526;2024-02-23T09:22:11;18.00;83.50
40538;DHT22;27925;41.874;12.526;2024-02-23T09:24:40;17.90;83.10
40538;DHT22;27925;41.874;12.526;2024-02-23T09:27:06;18.00;83.20
40538;DHT22;27925;41.874;12.526;2024-02-23T09:29:35;18.00;83.20
40538;DHT22;27925;41.874;12.526;2024-02-23T09:32:01;18.00;82.90
40538;DHT22;27925;41.874;12.526;2024-02-23T09:34:27;18.00;83.00
40538;DHT22;27925;41.874;12.526;2024-02-23T09:36:52;17.90;82.90
40538;DHT22;27925;41.874;12.526;2024-02-23T09:39:18;17.90;83.00
40538;DHT22;27925;41.874;12.526;2024-02-23T09:41:45;17.90;83.00
40538;DHT22;27925;41.874;12.526;2024-02-23T09:44:15;17.90;83.10
40538;DHT22;27925;41.874;12.526;2024-02-23T09:46:43;17.90;83.20
40538;DHT22;27925;41.874;12.526;2024-02-23T09:49:11;17.90;83.20
40538;DHT22;27925;41.874;12.526;2024-02-23T09:51:38;17.80;83.00
40538;DHT22;27925;41.874;12.526;2024-02-23T09:54:04;17.90;83.00
40538;DHT22;27925;41.874;12.526;2024-02-23T09:56:30;17.90;83.10
40538;DHT22;27925;41.874;12.526;2024-02-23T09:59:00;18.00;82.80
40538;DHT22;27925;41.874;12.526;2024-02-23T10:01:31;18.00;82.70
40538;DHT22;27925;41.874;12.526;2024-02-23T10:03:59;18.00;82.70
40538;DHT22;27925;41.874;12.526;2024-02-23T10:06:26;18.00;82.70
40538;DHT22;27925;41.874;12.526;2024-02-23T10:08:52;17.90;82.90
40538;DHT22;27925;41.874;12.526;2024-02-23T10:11:22;17.90;83.20
40538;DHT22;27925;41.874;12.526;2024-02-23T10:13:49;17.80;83.30
40538;DHT22;27925;41.874;12.526;2024-02-23T10:16:19;17.70;83.40
40538;DHT22;27925;41.874;12.526;2024-02-23T10:18:46;17.70;83.70
40538;DHT22;27925;41.874;12.526;2024-02-23T10:21:14;17.60;83.80
40538;DHT22;27925;41.874;12.526;2024-02-23T10:23:40;17.50;83.90
40538;DHT22;27925;41.874;12.526;2024-02-23T10:26:07;17.50;84.30
40538;DHT22;27925;41.874;12.526;2024-02-23T10:28:37;17.40;84.50
40538;DHT22;27925;41.874;12.526;2024-02-23T10:31:06;17.40;84.60
40538;DHT22;27925;41.874;12.526;2024-02-23T10:33:32;17.40;84.50
40538;DHT22;27925;41.874;12.526;2024-02-23T10:35:58;17.30;84.70
40538;DHT22;27925;41.874;12.526;2024-02-23T10:38:32;17.30;84.50
40538;DHT22;27925;41.874;12.526;2024-02-23T10:40:58;17.30;84.50
40538;DHT22;27925;41.874;12.526;2024-02-23T10:43:39;17.30;84.50
40538;DHT22;27925;41.874;12.526;2024-02-23T10:46:07;17.20;84.50
40538;DHT22;27925;41.874;12.526;2024-02-23T10:48:42;17.20;84.60
40538;DHT22;27925;41.874;12.526;2024-02-23T10:51:10;17.10;85.10
40538;DHT22;27925;41.874;12.526;2024-02-23T10:53:39;17.10;84.70
40538;DHT22;27925;41.874;12.526;2024-02-23T10:56:05;17.00;85.00
40538;DHT22;27925;41.874;12.526;2024-02-23T10:58:32;17.00;84.90
40538;DHT22;27925;41.874;12.526;2024-02-23T11:01:02;17.00;85.10
40538;DHT22;27925;41.874;12.526;2024-02-23T11:03:31;17.00;85.10
40538;DHT22;27925;41.874;12.526;2024-02-23T11:05:59;17.10;85.10
40538;DHT22;27925;41.874;12.526;2024-02-23T11:08:28;17.10;85.20
40538;DHT22;27925;41.874;12.526;2024-02-23T11:10:54;17.10;85.00
40538;DHT22;27925;41.874;12.526;2024-02-23T11:13:35;17.00;85.10
40538;DHT22;27925;41.874;12.526;2024-02-23T11:16:03;17.00;84.90
40538;DHT22;27925;41.874;12.526;2024-02-23T11:18:29;16.90;85.10
40538;DHT22;27925;41.874;12.526;2024-02-23T11:20:56;16.90;85.30
40538;DHT22;27925;41.874;12.526;2024-02-23T11:23:24;16.90;85.60
40538;DHT22;27925;41.874;12.526;2024-02-23T11:26:05;16.90;85.70
40538;DHT22;27925;41.874;12.526;2024-02-23T11:28:42;16.90;85.70
40538;DHT22;27925;41.874;12.526;2024-02-23T11:31:12;16.90;85.40
40538;DHT22;27925;41.874;12.526;2024-02-23T11:33:38;16.90;85.30
40538;DHT22;27925;41.874;12.526;2024-02-23T11:36:07;17.00;85.50
40538;DHT22;27925;41.874;12.526;2024-02-23T11:38:33;17.00;85.70
40538;DHT22;27925;41.874;12.526;2024-02-23T11:41:02;17.00;85.50
40538;DHT22;27925;41.874;12.526;2024-02-23T11:43:29;17.00;85.70
40538;DHT22;27925;41.874;12.526;2024-02-23T11:45:54;17.10;85.90
40538;DHT22;27925;41.874;12.526;2024-02-23T11:48:20;17.10;85.80
40538;DHT22;27925;41.874;12.526;2024-02-23T11:50:48;17.10;85.70
40538;DHT22;27925;41.874;12.526;2024-02-23T11:53:14;17.10;85.70
40538;DHT22;27925;41.874;12.526;2024-02-23T11:55:40;17.10;85.80
40538;DHT22;27925;41.874;12.526;2024-02-23T11:58:06;17.10;85.90
40538;DHT22;27925;41.874;12.526;2024-02-23T12:00:32;17.00;86.00
40538;DHT22;27925;41.874;12.526;2024-02-23T12:02:58;17.00;86.00
40538;DHT22;27925;41.874;12.526;2024-02-23T12:05:24;17.00;86.10
40538;DHT22;27925;41.874;12.526;2024-02-23T12:07:50;17.10;86.30
40538;DHT22;27925;41.874;12.526;2024-02-23T12:10:16;17.10;86.10
40538;DHT22;27925;41.874;12.526;2024-02-23T12:12:42;17.10;86.40
40538;DHT22;27925;41.874;12.526;2024-02-23T12:15:08;17.10;85.70
40538;DHT22;27925;41.874;12.526;2024-02-23T12:17:37;17.10;86.30
40538;DHT22;27925;41.874;12.526;2024-02-23T12:20:03;17.10;85.60
40538;DHT22;27925;41.874;12.526;2024-02-23T12:22:29;17.10;85.90
40538;DHT22;27925;41.874;12.526;2024-02-23T12:25:01;17.10;85.70
40538;DHT22;27925;41.874;12.526;2024-02-23T12:27:28;17.10;85.80
40538;DHT22;27925;41.874;12.526;2024-02-23T12:29:55;17.10;85.70
40538;DHT22;27925;41.874;12.526;2024-02-23T12:32:21;17.10;85.80
40538;DHT22;27925;41.874;12.526;2024-02-23T12:34:47;17.10;85.80
40538;DHT22;27925;41.874;12.526;2024-02-23T12:37:17;17.20;85.90
40538;DHT22;27925;41.874;12.526;2024-02-23T12:39:46;17.20;85.90
40538;DHT22;27925;41.874;12.526;2024-02-23T12:42:13;17.10;86.30
40538;DHT22;27925;41.874;12.526;2024-02-23T12:44:39;17.10;85.70
40538;DHT22;27925;41.874;12.526;2024-02-23T12:47:04;17.20;86.00
40538;DHT22;27925;41.874;12.526;2024-02-23T12:49:30;17.20;86.00
40538;DHT22;27925;41.874;12.526;2024-02-23T12:51:57;17.10;86.30
40538;DHT22;27925;41.874;12.526;2024-02-23T12:54:22;17.10;86.30
40538;DHT22;27925;41.874;12.526;2024-02-23T12:56:48;17.00;86.30
40538;DHT22;27925;41.874;12.526;2024-02-23T12:59:15;17.00;86.70
40538;DHT22;27925;41.874;12.526;2024-02-23T13:01:40;17.00;86.70
40538;DHT22;27925;41.874;12.526;2024-02-23T13:04:06;17.00;86.80
40538;DHT22;27925;41.874;12.526;2024-02-23T13:06:38;17.00;86.70
40538;DHT22;27925;41.874;12.526;2024-02-23T13:09:05;17.10;86.40
40538;DHT22;27925;41.874;12.526;2024-02-23T13:11:34;17.10;86.30
40538;DHT22;27925;41.874;12.526;2024-02-23T13:14:00;17.20;86.20
40538;DHT22;27925;41.874;12.526;2024-02-23T13:16:27;17.20;85.90
40538;DHT22;27925;41.874;12.526;2024-02-23T13:18:53;17.30;85.80
40538;DHT22;27925;41.874;12.526;2024-02-23T13:21:18;17.20;85.80
40538;DHT22;27925;41.874;12.526;2024-02-23T13:23:44;17.20;85.90
40538;DHT22;27925;41.874;12.526;2024-02-23T13:26:10;17.20;85.90
40538;DHT22;27925;41.874;12.526;2024-02-23T13:28:36;17.10;86.10
40538;DHT22;27925;41.874;12.526;2024-02-23T13:31:02;17.10;86.00
40538;DHT22;27925;41.874;12.526;2024-02-23T13:33:28;17.00;86.10
40538;DHT22;27925;41.874;12.526;2024-02-23T13:35:54;17.00;86.10
40538;DHT22;27925;41.874;12.526;2024-02-23T13:38:20;17.10;86.40
40538;DHT22;27925;41.874;12.526;2024-02-23T13:40:46;17.10;86.30
40538;DHT22;27925;41.874;12.526;2024-02-23T13:43:12;17.10;86.20
40538;DHT22;27925;41.874;12.526;2024-02-23T13:45:49;17.10;86.30
40538;DHT22;27925;41.874;12.526;2024-02-23T13:48:16;17.20;86.10
40538;DHT22;27925;41.874;12.526;2024-02-23T13:50:42;17.20;86.20
40538;DHT22;27925;41.874;12.526;2024-02-23T13:53:08;17.20;86.10
40538;DHT22;27925;41.874;12.526;2024-02-23T13:55:33;17.20;86.10
40538;DHT22;27925;41.874;12.526;2024-02-23T13:57:59;17.20;86.10
40538;DHT22;27925;41.874;12.526;2024-02-23T14:00:25;17.20;86.10
40538;DHT22;27925;41.874;12.526;2024-02-23T14:02:51;17.30;85.80
40538;DHT22;27925;41.874;12.526;2024-02-23T14:05:17;17.30;85.80
40538;DHT22;27925;41.874;12.526;2024-02-23T14:07:43;17.40;85.50
40538;DHT22;27925;41.874;12.526;2024-02-23T14:10:09;17.40;85.40
40538;DHT22;27925;41.874;12.526;2024-02-23T14:12:35;17.40;85.50
40538;DHT22;27925;41.874;12.526;2024-02-23T14:15:01;17.40;85.30
40538;DHT22;27925;41.874;12.526;2024-02-23T14:17:27;17.30;85.40
40538;DHT22;27925;41.874;12.526;2024-02-23T14:19:53;17.40;85.50
40538;DHT22;27925;41.874;12.526;2024-02-23T14:22:18;17.30;85.50
40538;DHT22;27925;41.874;12.526;2024-02-23T14:24:44;17.30;85.50
40538;DHT22;27925;41.874;12.526;2024-02-23T14:27:10;17.20;85.50
40538;DHT22;27925;41.874;12.526;2024-02-23T14:29:35;17.10;85.60
40538;DHT22;27925;41.874;12.526;2024-02-23T14:32:01;17.10;85.80
40538;DHT22;27925;41.874;12.526;2024-02-23T14:34:27;17.00;86.30
40538;DHT22;27925;41.874;12.526;2024-02-23T14:36:54;17.00;86.00
40538;DHT22;27925;41.874;12.526;2024-02-23T14:39:20;17.00;86.00
40538;DHT22;27925;41.874;12.526;2024-02-23T14:41:46;16.90;86.00
40538;DHT22;27925;41.874;12.526;2024-02-23T14:44:12;16.90;86.20
40538;DHT22;27925;41.874;12.526;2024-02-23T14:46:38;16.80;86.40
40538;DHT22;27925;41.874;12.526;2024-02-23T14:49:03;16.80;86.50
40538;DHT22;27925;41.874;12.526;2024-02-23T14:51:29;16.70;86.40
40538;DHT22;27925;41.874;12.526;2024-02-23T14:53:55;16.70;86.50
40538;DHT22;27925;41.874;12.526;2024-02-23T14:56:21;16.70;86.70
40538;DHT22;27925;41.874;12.526;2024-02-23T14:58:46;16.70;86.50
40538;DHT22;27925;41.874;12.526;2024-02-23T15:01:12;16.60;86.70
40538;DHT22;27925;41.874;12.526;2024-02-23T15:03:38;16.60;86.70
40538;DHT22;27925;41.874;12.526;2024-02-23T15:06:04;16.60;87.00
40538;DHT22;27925;41.874;12.526;2024-02-23T15:08:30;16.50;87.70
40538;DHT22;27925;41.874;12.526;2024-02-23T15:10:55;16.50;87.90